Hlavní strana
METAR-TAF:

METAR-TAF

Letiště :

Pajala, Švédsko

zeměpisná šířka: 67-14-44N, zeměpisná délka: 023-04-08E, výška: 165 m

Aktuální stav počasí

Zpráva byla vytvořena před 31 minutami, v 13:20 UTC
Jihozápadní vítr 12 kt, proměnlivý mezi jižním a západojihozápadním
Teplota 19°C
Vlhkost vzduchu 34%
Tlak 1026 hPa
Viditelnost 10 km a více

METAR: ESUP 261320Z AUTO 22012KT 190V250 9999 NCD 19/03 Q1026

Čas: 15:51 (13:51 UTC)


TAF: chybějící

Stav a předpovědi počasí z více než 4 000 letišť (zprávy METAR a TAF).

Červené a žluté tečky na mapě představují dostupné meteorologické stanice.

Když kurzor umístíte na tečku, zobrazí se název stanice.

Pak kliknutím zobrazíte stav a předpověď počasí.

Chcete-li změnit mapu, kliknutím na zelené tlačítko se znaménkem +mapu přiblížíte, kliknutím na zelené tlačítko se znaménkem – mapu oddálíte a kliknutím na zelené šipky přejdete na sousední mapy.


METAR-TAF: